Flight Track Log - Related Links

Times and Time Zones

All times are in EDT time to prevent confusion due to time zone crossing. See the ACA831 flight status page for this flight to view local times or setup timezone preferences in your user account.

Time Position Orientation Groundspeed Altitude Reporting Facility
EDT Latitude Longitude Course Direction KTS MPH feet Rate Location/Type
Sat 04:10:33 PM 45.4590 -73.7420 131° Southeast 4 5  Level FlightAware
Sat 04:10:48 PM 45.4590 -73.7410 90° East 6 7 143 Level FlightAware
Sat 04:11:33 PM 45.4610 -73.7370 55° Northeast 78 90 174 Level FlightAware
Sat 04:11:57 PM 45.4730 -73.7210 43° Northeast 161 185 200 1,821 Climbing FlightAware
Sat 04:12:29 PM 45.4930 -73.6970 40° Northeast 182 209 1,700 2,762 Climbing FlightAware
Sat 04:13:00 PM 45.5130 -73.6700 43° Northeast 204 235 3,100 2,421 Climbing FlightAware
Sat 04:13:26 PM 45.5330 -73.6440 42° Northeast 240 276 4,000 2,211 Climbing FlightAware
Sat 04:13:38 PM 45.5460 -73.6350 26° Northeast 251 289 4,500 2,727 Climbing FlightAware
Sat 04:13:48 PM 45.5570 -73.6330 North 258 297 5,000 3,429 Climbing FlightAware
Sat 04:14:20 PM 45.5870 -73.6600 328° Northwest 255 293 6,900 3,714 Climbing FlightAware
Sat 04:14:30 PM 45.5910 -73.6780 288° West 254 292 7,600 3,900 Climbing FlightAware
Sat 04:15:00 PM 45.5840 -73.7270 258° West 263 303 9,500 3,000 Climbing FlightAware
Sat 04:15:42 PM 45.5670 -73.7970 251° West 309 356 11,200 3,035 Climbing FlightAware
Sat 04:16:25 PM 45.5450 -73.8880 251° West 332 382 13,800 3,904 Climbing FlightAware
Sat 04:17:05 PM 45.5250 -73.9710 251° West 330 380 16,600 3,900 Climbing FlightAware
Sat 04:17:25 PM 45.5050 -74.0040 229° Southwest 343 395 17,700 2,945 Climbing FlightAware
Sat 04:18:00 PM 45.4640 -74.0610 224° Southwest 362 417 19,300 2,850 Climbing FlightAware
Sat 04:18:45 PM 45.4210 -74.1430 233° Southwest 365 420 21,500 2,563 Climbing FlightAware
Sat 04:19:36 PM 45.4130 -74.2740 265° West 389 448 23,400 2,303 Climbing FlightAware
Sat 04:20:24 PM 45.4160 -74.3970 272° West 399 459 25,300 2,478 Climbing FlightAware
Sat 04:21:08 PM 45.4030 -74.5140 261° West 409 471 27,200 2,308 Climbing FlightAware
Sat 04:21:42 PM 45.3880 -74.6010 256° West 418 481 28,300 2,214 Climbing FlightAware
Sat 04:22:32 PM 45.3650 -74.7380 257° West 421 484 30,300 2,769 Climbing FlightAware
Sat 04:23:26 PM 45.3410 -74.8780 256° West 398 458 33,100 2,327 Climbing FlightAware
Sat 04:24:10 PM 45.3220 -74.9890 256° West 405 466 34,100 628 Climbing FlightAware
Sat 04:24:52 PM 45.3030 -75.0980 256° West 413 475 34,000  Descending FlightAware
Sat 04:25:30 PM 45.2860 -75.1990 257° West 412 474 34,100  Climbing FlightAware
Sat 04:26:06 PM 45.2700 -75.2910 256° West 407 468 34,000 -64 Descending FlightAware
Sat 04:27:04 PM 45.2430 -75.4410 256° West 401 461 34,000  Level FlightAware
Sat 04:27:48 PM 45.2230 -75.5530 256° West 397 457 34,000  Level FlightAware
Sat 04:28:30 PM 45.2050 -75.6570 256° West 397 457 34,000  Level FlightAware
Sat 04:29:06 PM 45.1920 -75.7310 256° West 397 457 34,000  Level FlightAware
Sat 04:29:45 PM 45.1740 -75.8300 256° West 399 459 34,000  Level FlightAware
Sat 04:30:51 PM 45.1420 -76.0070 256° West 404 465 34,000  Level FlightAware
Sat 04:31:26 PM 45.1260 -76.0900 255° West 407 468 34,000  Level FlightAware
Sat 04:32:31 PM 45.0870 -76.2640 252° West 419 482 34,000  Level FlightAware
Sat 04:33:11 PM 45.0540 -76.3510 242° Southwest 423 487 34,000  Level FlightAware
Sat 04:33:51 PM 45.0130 -76.4540 241° Southwest 425 489 34,000  Level FlightAware
Sat 04:34:41 PM 44.9630 -76.5790 241° Southwest 428 493 34,000  Level FlightAware
Sat 04:35:16 PM 44.9320 -76.6560 240° Southwest 428 493 34,000  Level FlightAware
Sat 04:36:01 PM 44.8860 -76.7730 241° Southwest 426 490 34,000 -333 Level FlightAware
Sat 04:36:46 PM 44.8440 -76.8770 240° Southwest 413 475 33,500 -776 Descending FlightAware
Sat 04:37:26 PM 44.8080 -76.9680 241° Southwest 399 459 32,900 -1,059 Descending FlightAware
Sat 04:38:11 PM 44.7670 -77.0680 240° Southwest 389 448 32,000 -1,125 Descending FlightAware
Sat 04:38:46 PM 44.7380 -77.1400 240° Southwest 382 440 31,400 -1,050 Descending FlightAware
Sat 04:39:31 PM 44.6980 -77.2390 240° Southwest 373 429 30,600 -1,200 Descending FlightAware
Sat 04:40:16 PM 44.6580 -77.3360 240° Southwest 368 423 29,600 -1,200 Descending FlightAware
Sat 04:40:56 PM 44.6260 -77.4140 240° Southwest 364 419 28,900 -1,129 Descending FlightAware
Sat 04:41:41 PM 44.5900 -77.5020 240° Southwest 360 414 28,000 -1,575 Descending FlightAware
Sat 04:42:16 PM 44.5590 -77.5780 240° Southwest 356 410 26,800 -1,950 Descending FlightAware
Sat 04:43:01 PM 44.5220 -77.6680 240° Southwest 348 400 25,400 -1,667 Descending FlightAware
Sat 04:43:46 PM 44.4890 -77.7470 240° Southwest 344 396 24,300 -1,765 Descending FlightAware
Sat 04:44:26 PM 44.4540 -77.8320 240° Southwest 341 392 22,900 -1,950 Descending FlightAware
Sat 04:45:06 PM 44.4230 -77.9060 240° Southwest 342 394 21,700 -1,835 Descending FlightAware
Sat 04:45:51 PM 44.3860 -77.9940 240° Southwest 339 390 20,300 -1,725 Descending FlightAware
Sat 04:46:26 PM 44.3600 -78.0570 240° Southwest 336 387 19,400 -1,453 Descending FlightAware
Sat 04:47:26 PM 44.3130 -78.1690 240° Southwest 323 372 18,000 -1,371 Descending FlightAware
Sat 04:48:11 PM 44.2820 -78.2430 240° Southwest 312 359 17,000 -1,412 Descending FlightAware
Sat 04:48:51 PM 44.2510 -78.3150 239° Southwest 305 351 16,000 -1,000 Descending FlightAware
Sat 04:49:47 PM 44.2160 -78.3970 239° Southwest 301 346 15,400 -1,389 Descending FlightAware
Sat 04:50:26 PM 44.1850 -78.4720 240° Southwest 284 327 13,800 -1,820 Descending FlightAware
Sat 04:51:16 PM 44.1520 -78.5480 239° Southwest 278 320 12,700 -1,000 Descending FlightAware
Sat 04:51:56 PM 44.1260 -78.6100 240° Southwest 273 314 12,300 -600 Descending FlightAware
Sat 04:52:36 PM 44.1000 -78.6700 239° Southwest 268 308 11,900 -825 Descending FlightAware
Sat 04:53:16 PM 44.0750 -78.7280 239° Southwest 263 303 11,200 -1,482 Descending FlightAware
Sat 04:54:01 PM 44.0460 -78.7950 239° Southwest 266 306 9,800 -1,600 Descending FlightAware
Sat 04:54:31 PM 44.0250 -78.8300 230° Southwest 271 312 9,200 -1,200 Descending FlightAware
Sat 04:54:56 PM 44.0010 -78.8660 227° Southwest 259 298 8,700 -960 Descending FlightAware
Sat 04:55:21 PM 43.9820 -78.8950 228° Southwest 245 282 8,400 -764 Descending FlightAware
Sat 04:55:51 PM 43.9600 -78.9280 227° Southwest 233 268 8,000 -933 Descending FlightAware
Sat 04:56:06 PM 43.9480 -78.9450 226° Southwest 230 265 7,700 -1,050 Descending FlightAware
Sat 04:56:31 PM 43.9310 -78.9720 229° Southwest 225 259 7,300 -800 Descending FlightAware
Sat 04:57:06 PM 43.9070 -79.0070 226° Southwest 222 255 6,900 -533 Descending FlightAware
Sat 04:57:16 PM 43.8990 -79.0190 227° Southwest 222 255 6,900  Level FlightAware
Sat 04:57:46 PM 43.8780 -79.0510 228° Southwest 225 259 6,900  Level FlightAware
Sat 04:58:01 PM 43.8710 -79.0710 244° Southwest 219 252 6,900  Level FlightAware
Sat 04:58:50 PM 43.8710 -79.1400 270° West 220 253 6,900 -228 Level FlightAware
Sat 04:59:20 PM 43.8730 -79.1850 274° West 216 249 6,600 -800 Descending FlightAware
Sat 04:59:35 PM 43.8730 -79.2040 270° West 215 247 6,300 -1,200 Descending FlightAware
Sat 05:00:05 PM 43.8790 -79.2440 282° West 220 253 5,700 -1,200 Descending FlightAware
Sat 05:00:20 PM 43.8870 -79.2610 303° West 222 255 5,400 -1,200 Descending FlightAware
Sat 05:00:35 PM 43.8920 -79.2810 289° West 221 254 5,100 -732 Descending FlightAware
Sat 05:01:01 PM 43.8840 -79.3110 250° West 198 228 4,900 -293 Descending FlightAware
Sat 05:01:16 PM 43.8730 -79.3230 218° Southwest 185 213 4,900  Level FlightAware
Sat 05:01:41 PM 43.8570 -79.3400 217° Southwest 170 196 4,900  Level FlightAware
Sat 05:02:11 PM 43.8400 -79.3630 224° Southwest 171 197 4,900 -436 Level FlightAware
Sat 05:02:36 PM 43.8260 -79.3830 226° Southwest 172 198 4,500 -800 Descending FlightAware
Sat 05:02:56 PM 43.8160 -79.3980 227° Southwest 169 194 4,300 -800 Descending FlightAware
Sat 05:03:21 PM 43.8020 -79.4180 226° Southwest 169 194 3,900 -873 Descending FlightAware
Sat 05:03:51 PM 43.7870 -79.4400 227° Southwest 152 175 3,500 -800 Descending FlightAware
Sat 05:04:06 PM 43.7790 -79.4510 225° Southwest 151 174 3,300 -900 Descending FlightAware
Sat 05:04:31 PM 43.7670 -79.4680 226° Southwest 157 181 2,900 -873 Descending FlightAware
Sat 05:05:01 PM 43.7530 -79.4900 229° Southwest 163 188 2,500 -764 Descending FlightAware
Sat 05:05:26 PM 43.7390 -79.5090 224° Southwest 165 190 2,200 -873 Descending FlightAware
Sat 05:05:56 PM 43.7240 -79.5310 227° Southwest 142 163 1,700 -873 Descending FlightAware
Sat 05:06:21 PM 43.7130 -79.5480 228° Southwest 142 163 1,400 -667 Descending FlightAware
Sat 05:06:41 PM 43.7040 -79.5610 226° Southwest 143 165 1,200 -700 Descending FlightAware
Sat 05:07:21 PM 43.6860 -79.5870 226° Southwest 152 175 700 -462 Descending FlightAware
Sat 05:07:46 PM 43.6760 -79.6010 225° Southwest 152 175 700  Level FlightAware

Login

Don't have an account? Register now (free) for customized features, flight alerts, and more!